Time;durP1;ratioP1;P1;durP2;ratioP2;P2;SDS_P1;SDS_P2;PMS_P1;PMS_P2;Temp;Humidity;BMP_temperature;BMP_pressure;BME280_temperature;BME280_humidity;BME280_pressure;Samples;Min_cycle;Max_cycle;Signal;HPM_P1;HPM_P2
2023/08/09 00:01:57;;;;;;;2.93;2.63;;;20.80;95.30;;;;;;5007138;28;20802;-73
2023/08/09 00:04:23;;;;;;;2.80;2.60;;;20.80;95.30;;;;;;5008834;28;20468;-73
2023/08/09 00:06:49;;;;;;;2.47;2.17;;;20.80;95.40;;;;;;4992246;28;20256;-73
2023/08/09 00:09:17;;;;;;;2.80;2.60;;;20.80;95.50;;;;;;4992423;28;20988;-73
2023/08/09 00:11:43;;;;;;;4.30;3.00;;;20.70;95.40;;;;;;4980489;28;20458;-73
2023/08/09 00:14:11;;;;;;;2.67;2.47;;;20.70;95.50;;;;;;4992079;28;20453;-72
2023/08/09 00:16:40;;;;;;;2.80;2.37;;;20.70;95.60;;;;;;4987753;28;20432;-73
2023/08/09 00:19:09;;;;;;;2.63;2.43;;;20.70;95.60;;;;;;4972322;28;20459;-72
2023/08/09 00:21:39;;;;;;;2.93;2.73;;;20.70;95.60;;;;;;4990133;28;20453;-73
2023/08/09 00:24:10;;;;;;;2.90;2.70;;;20.70;95.60;;;;;;4972845;28;20475;-72
2023/08/09 00:26:39;;;;;;;2.67;2.47;;;20.70;95.60;;;;;;4996114;28;20983;-73
2023/08/09 00:29:05;;;;;;;2.43;2.00;;;20.70;95.60;;;;;;4991419;28;20443;-73
2023/08/09 00:31:31;;;;;;;2.60;2.40;;;20.70;95.60;;;;;;4979258;28;20459;-73
2023/08/09 00:34:00;;;;;;;2.47;2.27;;;20.70;95.60;;;;;;4991634;28;20411;-73
2023/08/09 00:36:28;;;;;;;2.70;2.60;;;20.70;95.70;;;;;;4991166;28;20840;-72
2023/08/09 00:38:54;;;;;;;2.83;2.53;;;20.70;95.60;;;;;;4989983;28;21355;-72
2023/08/09 00:41:20;;;;;;;3.73;2.90;;;20.70;95.60;;;;;;4971953;28;20441;-73
2023/08/09 00:43:46;;;;;;;2.30;2.10;;;20.70;95.60;;;;;;4972962;28;20423;-73
2023/08/09 00:46:12;;;;;;;2.37;2.17;;;20.70;95.60;;;;;;4980707;28;20434;-74
2023/08/09 00:48:43;;;;;;;2.80;2.30;;;20.70;95.60;;;;;;4989959;28;20451;-72
2023/08/09 00:51:11;;;;;;;2.47;2.37;;;20.70;95.60;;;;;;4991710;28;20467;-73
2023/08/09 00:53:41;;;;;;;2.23;2.13;;;20.70;95.50;;;;;;4958398;28;20465;-72
2023/08/09 00:56:07;;;;;;;2.70;2.50;;;20.70;95.50;;;;;;4965691;28;20438;-73
2023/08/09 00:58:33;;;;;;;2.37;2.20;;;20.60;95.40;;;;;;4975318;28;20803;-73
2023/08/09 01:01:03;;;;;;;2.50;2.30;;;20.70;95.50;;;;;;4991788;28;20443;-72
2023/08/09 01:03:32;;;;;;;2.90;2.20;;;20.60;95.40;;;;;;4991084;28;20998;-73
2023/08/09 01:06:20;;;;;;;2.10;2.00;;;20.60;95.40;;;;;;4991143;28;20412;-72
2023/08/09 01:09:00;;;;;;;2.10;2.00;;;20.60;95.30;;;;;;5001058;28;21303;-73
2023/08/09 01:11:36;;;;;;;2.33;2.20;;;20.60;95.30;;;;;;4962666;28;20924;-72
2023/08/09 01:14:11;;;;;;;2.00;1.90;;;20.60;95.30;;;;;;4956187;28;20424;-73
2023/08/09 01:16:39;;;;;;;2.20;2.00;;;20.60;95.30;;;;;;4959828;28;20420;-73
2023/08/09 01:19:14;;;;;;;2.30;1.97;;;20.60;95.30;;;;;;4972114;28;21085;-73
2023/08/09 01:21:43;;;;;;;2.07;1.97;;;20.60;95.30;;;;;;4972097;28;20557;-73
2023/08/09 01:24:14;;;;;;;2.30;1.90;;;20.60;95.30;;;;;;4955648;28;20439;-73
2023/08/09 01:26:43;;;;;;;3.47;2.07;;;20.60;95.20;;;;;;4978658;28;20436;-73
2023/08/09 01:29:09;;;;;;;2.30;2.10;;;20.60;95.20;;;;;;4989258;28;20450;-72
2023/08/09 01:31:37;;;;;;;2.17;2.07;;;20.60;95.20;;;;;;4971856;28;20472;-74
2023/08/09 01:34:06;;;;;;;2.30;2.10;;;20.50;95.50;;;;;;4988901;28;20476;-72
2023/08/09 01:36:36;;;;;;;2.40;2.20;;;20.50;95.20;;;;;;4977340;28;20438;-73
2023/08/09 01:39:07;;;;;;;2.00;1.90;;;20.50;95.20;;;;;;4991073;28;20431;-73
2023/08/09 01:41:37;;;;;;;2.47;2.20;;;20.50;95.20;;;;;;4974429;28;20491;-73
2023/08/09 01:44:07;;;;;;;2.60;2.40;;;20.60;95.20;;;;;;4955914;28;20513;-74
2023/08/09 01:46:36;;;;;;;2.27;2.07;;;20.50;95.20;;;;;;4961566;28;20438;-73
2023/08/09 01:49:10;;;;;;;2.50;2.30;;;20.50;95.10;;;;;;5008445;28;21152;-73
2023/08/09 01:51:41;;;;;;;2.60;2.07;;;20.50;95.10;;;;;;4978758;28;20575;-73
2023/08/09 01:54:11;;;;;;;2.50;2.30;;;20.50;95.10;;;;;;4959366;28;20446;-73
2023/08/09 01:56:39;;;;;;;2.50;2.30;;;20.50;95.10;;;;;;4982904;28;20431;-73
2023/08/09 01:59:09;;;;;;;2.10;2.00;;;20.50;95.10;;;;;;4959520;28;20437;-73
2023/08/09 02:01:40;;;;;;;2.00;1.90;;;20.50;95.20;;;;;;4978510;28;20464;-73
2023/08/09 02:04:12;;;;;;;2.47;2.27;;;20.50;95.20;;;;;;4992728;28;20500;-73
2023/08/09 02:06:41;;;;;;;2.10;2.00;;;20.50;95.20;;;;;;4980677;28;20509;-73
2023/08/09 02:09:07;;;;;;;1.90;1.80;;;20.50;95.20;;;;;;4993291;28;21072;-73
2023/08/09 02:11:35;;;;;;;2.10;2.00;;;20.40;95.10;;;;;;5026486;28;21038;-73
2023/08/09 02:14:01;;;;;;;3.00;2.37;;;20.40;95.10;;;;;;5027179;28;20399;-73
2023/08/09 02:16:29;;;;;;;2.47;2.30;;;20.50;95.10;;;;;;4959196;28;20456;-73
2023/08/09 02:19:01;;;;;;;2.23;2.10;;;20.40;95.10;;;;;;4958665;28;20503;-73
2023/08/09 02:21:27;;;;;;;2.10;2.00;;;20.40;95.10;;;;;;4974507;28;20547;-73
2023/08/09 02:23:53;;;;;;;2.70;2.20;;;20.40;95.10;;;;;;4974742;28;20499;-73
2023/08/09 02:26:19;;;;;;;2.17;2.00;;;20.40;95.10;;;;;;4974585;28;20254;-72
2023/08/09 02:28:46;;;;;;;2.20;2.10;;;20.40;95.10;;;;;;4974667;28;20456;-73
2023/08/09 02:31:12;;;;;;;2.30;2.20;;;20.40;95.10;;;;;;4974652;28;20451;-73
2023/08/09 02:33:38;;;;;;;2.23;2.13;;;20.40;95.10;;;;;;4974474;28;20953;-73
2023/08/09 02:36:05;;;;;;;2.97;2.47;;;20.40;95.10;;;;;;4973877;28;20427;-73
2023/08/09 02:38:35;;;;;;;2.10;2.00;;;20.40;95.10;;;;;;4994082;28;20420;-74
2023/08/09 02:41:06;;;;;;;2.17;2.07;;;20.40;95.20;;;;;;4993890;28;20453;-73
2023/08/09 02:43:32;;;;;;;2.30;2.10;;;20.40;95.10;;;;;;4977736;28;20440;-74
2023/08/09 02:45:58;;;;;;;2.33;2.20;;;20.40;95.20;;;;;;4994284;28;20521;-73
2023/08/09 02:48:25;;;;;;;2.50;2.30;;;20.40;95.20;;;;;;4994531;28;20527;-73
2023/08/09 02:50:51;;;;;;;2.20;2.00;;;20.40;95.10;;;;;;4978490;28;20435;-73
2023/08/09 02:53:20;;;;;;;3.90;1.97;;;20.30;95.10;;;;;;5027103;28;20410;-73
2023/08/09 02:55:46;;;;;;;2.20;2.00;;;20.40;95.10;;;;;;5006376;28;20969;-73
2023/08/09 02:58:14;;;;;;;2.03;1.93;;;20.30;95.10;;;;;;5012366;28;20415;-73
2023/08/09 03:00:42;;;;;;;2.53;2.43;;;20.30;95.10;;;;;;4994440;28;20461;-73
2023/08/09 03:03:10;;;;;;;2.13;1.93;;;20.30;95.20;;;;;;4978602;28;20967;-73
2023/08/09 03:05:38;;;;;;;2.47;2.27;;;20.30;95.10;;;;;;4991419;28;20525;-73
2023/08/09 03:08:07;;;;;;;2.13;2.03;;;20.30;95.20;;;;;;4991499;28;20549;-73
2023/08/09 03:10:37;;;;;;;2.20;2.00;;;20.30;95.20;;;;;;4957879;28;20453;-73
2023/08/09 03:13:04;;;;;;;2.80;2.60;;;20.30;95.20;;;;;;4957528;28;20913;-73
2023/08/09 03:15:34;;;;;;;2.40;2.20;;;20.30;95.20;;;;;;4962071;28;20916;-73
2023/08/09 03:18:00;;;;;;;2.30;2.10;;;20.30;95.30;;;;;;4973098;28;20491;-74
2023/08/09 03:20:29;;;;;;;2.40;2.20;;;20.30;95.20;;;;;;4983636;28;20548;-74
2023/08/09 03:22:58;;;;;;;2.60;2.50;;;20.30;95.20;;;;;;4972214;28;20453;-74
2023/08/09 03:25:24;;;;;;;2.77;2.23;;;20.30;95.20;;;;;;4991770;28;20429;-74
2023/08/09 03:27:55;;;;;;;2.50;2.30;;;20.30;95.20;;;;;;4991910;28;20433;-73
2023/08/09 03:30:24;;;;;;;2.20;2.10;;;20.20;95.20;;;;;;4976298;28;20459;-73
2023/08/09 03:32:50;;;;;;;2.07;1.90;;;20.30;95.30;;;;;;4992289;28;20424;-75
2023/08/09 03:35:16;;;;;;;2.80;2.60;;;20.20;95.20;;;;;;4983950;28;20457;-74
2023/08/09 03:37:43;;;;;;;2.30;2.20;;;20.30;95.30;;;;;;4973266;28;21284;-74
2023/08/09 03:40:12;;;;;;;2.50;2.40;;;20.20;95.20;;;;;;4991511;28;20444;-74
2023/08/09 03:42:42;;;;;;;2.57;2.47;;;20.20;95.30;;;;;;4992081;28;20406;-75
2023/08/09 03:45:11;;;;;;;2.10;1.90;;;20.20;95.30;;;;;;4984692;28;20418;-75
2023/08/09 03:47:38;;;;;;;2.20;2.10;;;20.20;95.30;;;;;;4986167;28;20434;-75
2023/08/09 03:50:11;;;;;;;2.37;2.27;;;20.20;95.30;;;;;;4976082;28;20445;-75
2023/08/09 03:52:37;;;;;;;2.40;2.30;;;20.20;95.30;;;;;;4992136;28;20543;-74
2023/08/09 03:55:05;;;;;;;2.30;2.20;;;20.20;95.30;;;;;;4970258;28;20419;-74
2023/08/09 03:57:33;;;;;;;2.43;2.23;;;20.20;95.30;;;;;;4990829;28;20437;-74
2023/08/09 04:00:02;;;;;;;2.40;2.30;;;20.20;95.30;;;;;;4985421;28;20417;-74
2023/08/09 04:02:40;;;;;;;2.37;2.17;;;20.20;95.30;;;;;;4974337;28;20414;-74
2023/08/09 04:05:09;;;;;;;2.30;2.20;;;20.20;95.30;;;;;;4961870;28;20440;-74
2023/08/09 04:07:35;;;;;;;2.60;2.50;;;20.20;95.30;;;;;;4979604;28;20430;-73
2023/08/09 04:10:07;;;;;;;2.60;2.40;;;20.20;95.30;;;;;;4955942;28;20503;-74
2023/08/09 04:12:34;;;;;;;2.47;2.37;;;20.10;95.20;;;;;;4955752;28;20428;-75
2023/08/09 04:15:00;;;;;;;2.90;2.70;;;20.10;95.20;;;;;;4976687;28;20525;-73
2023/08/09 04:17:31;;;;;;;2.40;2.20;;;20.10;95.20;;;;;;4964242;28;20838;-74
2023/08/09 04:19:57;;;;;;;2.37;2.20;;;20.10;95.20;;;;;;4961345;28;20557;-74
2023/08/09 04:22:25;;;;;;;2.33;2.03;;;20.10;95.20;;;;;;4990166;28;20447;-74
2023/08/09 04:24:51;;;;;;;2.20;2.00;;;20.10;95.20;;;;;;5000558;28;20423;-74
2023/08/09 04:27:18;;;;;;;2.70;2.60;;;20.10;95.30;;;;;;4979570;28;20988;-79
2023/08/09 04:29:49;;;;;;;3.27;2.13;;;20.10;95.30;;;;;;5010652;28;20450;-79
2023/08/09 04:32:17;;;;;;;2.20;2.00;;;20.10;95.30;;;;;;5009488;28;20473;-80
2023/08/09 04:34:43;;;;;;;2.30;2.20;;;20.10;95.30;;;;;;5022715;28;20468;-80
2023/08/09 04:37:12;;;;;;;2.40;2.30;;;20.10;95.30;;;;;;4972658;28;20433;-79
2023/08/09 04:39:38;;;;;;;2.43;2.30;;;20.10;95.30;;;;;;4957051;28;20516;-79
2023/08/09 04:42:06;;;;;;;2.10;2.00;;;20.10;95.30;;;;;;4972975;28;20446;-79
2023/08/09 04:44:35;;;;;;;3.53;2.30;;;20.10;95.30;;;;;;4990765;28;20992;-79
2023/08/09 04:47:04;;;;;;;2.30;2.20;;;20.00;95.30;;;;;;4959872;28;20486;-79
2023/08/09 04:49:30;;;;;;;2.53;2.43;;;20.00;95.30;;;;;;5010175;28;20456;-79
2023/08/09 04:51:56;;;;;;;2.17;2.07;;;20.00;95.30;;;;;;4975836;28;20443;-79
2023/08/09 04:54:22;;;;;;;2.43;2.33;;;20.00;95.30;;;;;;4988970;28;20445;-79
2023/08/09 04:56:49;;;;;;;2.30;2.20;;;20.00;95.30;;;;;;4970898;28;20660;-79
2023/08/09 04:59:17;;;;;;;2.90;2.50;;;20.00;95.30;;;;;;4957001;28;20447;-79
2023/08/09 05:01:45;;;;;;;2.37;2.27;;;20.00;95.30;;;;;;4956823;28;20505;-79
2023/08/09 05:04:13;;;;;;;2.50;2.40;;;20.00;95.30;;;;;;4990894;28;20500;-79
2023/08/09 05:06:41;;;;;;;2.60;2.40;;;20.00;95.30;;;;;;4992119;28;20853;-79
2023/08/09 05:09:09;;;;;;;2.40;2.20;;;20.00;95.30;;;;;;5005662;28;20468;-79
2023/08/09 05:11:35;;;;;;;2.23;2.10;;;20.00;95.30;;;;;;4990796;28;20463;-79
2023/08/09 05:14:01;;;;;;;2.23;2.13;;;20.00;95.40;;;;;;5006786;28;20422;-79
2023/08/09 05:16:35;;;;;;;2.10;2.00;;;20.00;95.40;;;;;;4972243;28;20867;-79
2023/08/09 05:19:01;;;;;;;2.57;2.47;;;20.00;95.40;;;;;;4957849;28;20469;-79
2023/08/09 05:21:27;;;;;;;2.50;2.30;;;20.00;95.40;;;;;;4975826;28;20539;-81
2023/08/09 05:23:53;;;;;;;2.10;2.00;;;20.00;95.40;;;;;;5002898;28;20861;-81
2023/08/09 05:26:19;;;;;;;3.10;2.63;;;20.00;95.40;;;;;;4994398;28;20941;-81
2023/08/09 05:28:45;;;;;;;2.50;2.30;;;20.00;95.50;;;;;;5076571;23;20499;-76
2023/08/09 05:31:11;;;;;;;2.37;2.17;;;20.00;95.50;;;;;;5048349;28;20495;-77
2023/08/09 05:33:37;;;;;;;2.60;2.43;;;20.00;95.50;;;;;;5038228;28;20397;-78
2023/08/09 05:36:03;;;;;;;2.63;2.53;;;20.00;95.50;;;;;;5021692;28;20413;-78
2023/08/09 05:38:30;;;;;;;2.30;2.20;;;20.00;95.50;;;;;;5024071;28;20602;-77
2023/08/09 05:40:58;;;;;;;2.30;2.20;;;19.90;95.50;;;;;;5040699;28;20444;-78
2023/08/09 05:43:29;;;;;;;2.10;2.00;;;20.00;95.60;;;;;;5022512;28;20441;-77
2023/08/09 05:45:55;;;;;;;4.73;2.50;;;19.90;95.60;;;;;;5007342;28;20473;-76
2023/08/09 05:48:21;;;;;;;2.50;2.40;;;19.90;95.60;;;;;;5041354;28;20457;-76
2023/08/09 05:50:47;;;;;;;3.00;2.80;;;19.90;95.60;;;;;;5022251;28;20527;-76
2023/08/09 05:53:13;;;;;;;2.63;2.43;;;19.90;95.60;;;;;;5022026;28;20434;-77
2023/08/09 05:55:40;;;;;;;3.27;3.07;;;19.90;95.60;;;;;;5022164;28;20447;-77
2023/08/09 05:58:06;;;;;;;2.97;2.77;;;19.90;95.60;;;;;;5005476;28;20437;-79
2023/08/09 06:00:34;;;;;;;2.93;2.73;;;19.90;95.60;;;;;;5054838;28;20454;-81
2023/08/09 06:03:00;;;;;;;3.50;3.20;;;19.90;95.70;;;;;;5041134;28;20231;-78
2023/08/09 06:05:26;;;;;;;3.60;3.30;;;19.90;95.70;;;;;;5011111;28;20442;-77
2023/08/09 06:07:53;;;;;;;3.30;3.10;;;19.90;95.70;;;;;;5041969;28;20483;-78
2023/08/09 06:10:23;;;;;;;3.33;3.13;;;19.90;95.70;;;;;;5059447;28;20501;-77
2023/08/09 06:12:50;;;;;;;3.37;3.17;;;19.90;95.70;;;;;;5038057;28;20418;-77
2023/08/09 06:15:19;;;;;;;3.70;3.43;;;19.90;95.70;;;;;;5076229;28;20458;-78
2023/08/09 06:17:45;;;;;;;3.93;3.60;;;19.90;95.70;;;;;;5063203;28;20424;-76
2023/08/09 06:20:14;;;;;;;3.27;3.07;;;19.90;95.70;;;;;;5044794;28;21102;-78
2023/08/09 06:22:41;;;;;;;3.67;3.47;;;19.90;95.80;;;;;;5060319;28;20444;-78
2023/08/09 06:25:09;;;;;;;4.27;3.87;;;19.90;95.80;;;;;;5062283;28;20407;-76
2023/08/09 06:27:35;;;;;;;4.20;3.90;;;19.90;95.80;;;;;;5044209;28;20442;-77
2023/08/09 06:30:06;;;;;;;6.73;5.97;;;19.80;95.70;;;;;;5046436;28;20561;-78
2023/08/09 06:32:32;;;;;;;5.20;4.63;;;19.90;95.80;;;;;;5039911;28;20418;-76
2023/08/09 06:34:59;;;;;;;5.03;4.63;;;19.80;95.80;;;;;;5040013;28;20883;-76
2023/08/09 06:37:30;;;;;;;6.03;5.43;;;19.80;95.80;;;;;;5038028;28;20418;-78
2023/08/09 06:39:57;;;;;;;6.33;5.73;;;19.80;95.80;;;;;;5039651;28;20512;-77
2023/08/09 06:42:25;;;;;;;7.27;6.43;;;19.80;95.80;;;;;;5040075;28;20482;-78
2023/08/09 06:44:56;;;;;;;6.70;6.10;;;19.80;95.70;;;;;;5040104;28;20457;-76
2023/08/09 06:47:21;;;;;;;7.83;6.47;;;19.80;95.70;;;;;;5033888;28;20902;-75
2023/08/09 06:49:47;;;;;;;7.80;7.10;;;19.80;95.70;;;;;;5032962;28;20482;-76
2023/08/09 06:52:16;;;;;;;10.70;7.90;;;19.80;95.70;;;;;;5033246;28;20197;-77
2023/08/09 06:54:42;;;;;;;12.20;9.47;;;19.80;95.70;;;;;;5033246;28;20538;-75
2023/08/09 06:57:08;;;;;;;10.10;8.10;;;19.80;95.70;;;;;;5052175;28;20775;-77
2023/08/09 06:59:34;;;;;;;10.37;9.30;;;19.80;95.80;;;;;;5007879;28;20225;-77
2023/08/09 07:02:00;;;;;;;11.10;9.30;;;19.80;95.70;;;;;;5014150;28;20542;-77
2023/08/09 07:04:29;;;;;;;11.47;10.10;;;19.80;95.70;;;;;;5014068;28;20492;-76
2023/08/09 07:06:57;;;;;;;10.03;9.03;;;19.80;95.70;;;;;;5030009;28;20424;-74
2023/08/09 07:09:23;;;;;;;10.77;9.67;;;19.80;95.70;;;;;;5013862;28;20626;-77
2023/08/09 07:11:55;;;;;;;12.60;10.43;;;19.80;95.70;;;;;;5014288;28;20452;-76
2023/08/09 07:14:20;;;;;;;12.63;11.33;;;19.80;95.70;;;;;;5014468;28;20463;-77
2023/08/09 07:16:46;;;;;;;12.03;10.80;;;19.80;95.70;;;;;;5031073;28;20433;-76
2023/08/09 07:19:13;;;;;;;14.67;10.97;;;19.80;95.70;;;;;;5014522;28;20209;-76
2023/08/09 07:21:38;;;;;;;14.23;12.37;;;19.80;95.70;;;;;;5031576;28;20528;-76
2023/08/09 07:24:07;;;;;;;13.70;11.73;;;19.80;95.70;;;;;;5014494;28;20886;-77
2023/08/09 07:26:35;;;;;;;13.17;11.87;;;19.80;95.70;;;;;;5014925;28;20836;-77
2023/08/09 07:29:03;;;;;;;15.67;12.47;;;19.80;95.70;;;;;;5032512;28;20875;-76
2023/08/09 07:31:30;;;;;;;15.80;13.97;;;19.80;95.70;;;;;;5014561;28;20816;-77
2023/08/09 07:33:58;;;;;;;15.07;13.47;;;19.80;95.70;;;;;;5013315;28;20402;-77
2023/08/09 07:36:24;;;;;;;14.83;12.73;;;19.80;95.70;;;;;;5029548;28;20430;-75
2023/08/09 07:38:50;;;;;;;14.40;13.00;;;19.80;95.60;;;;;;5011629;28;20498;-75
2023/08/09 07:41:18;;;;;;;14.47;12.70;;;19.80;95.60;;;;;;5029498;28;20519;-74
2023/08/09 07:43:47;;;;;;;15.13;13.60;;;19.80;95.60;;;;;;5011357;28;21074;-74
2023/08/09 07:46:16;;;;;;;14.80;12.73;;;19.80;95.60;;;;;;5027738;28;20415;-74
2023/08/09 07:48:42;;;;;;;13.90;12.17;;;19.80;95.60;;;;;;4994523;28;20489;-75
2023/08/09 07:51:11;;;;;;;11.90;10.70;;;19.80;95.60;;;;;;5010753;28;20449;-77
2023/08/09 07:53:40;;;;;;;13.57;11.93;;;19.80;95.60;;;;;;5011159;28;20956;-76
2023/08/09 07:56:07;;;;;;;15.93;13.20;;;19.80;95.60;;;;;;5011362;28;20440;-74
2023/08/09 07:58:35;;;;;;;12.37;11.07;;;19.80;95.80;;;;;;5027617;28;20404;-74
2023/08/09 08:01:04;;;;;;;14.87;12.50;;;19.80;95.60;;;;;;5010654;28;20444;-75
2023/08/09 08:03:33;;;;;;;12.40;10.73;;;19.90;95.70;;;;;;5010513;28;20923;-74
2023/08/09 08:06:02;;;;;;;13.13;11.27;;;19.80;96.00;;;;;;5011088;28;20440;-74
2023/08/09 08:08:30;;;;;;;13.03;10.93;;;19.80;95.80;;;;;;5028898;28;20450;-75
2023/08/09 08:10:57;;;;;;;11.60;10.37;;;19.90;95.80;;;;;;5028725;28;21160;-75
2023/08/09 08:13:26;;;;;;;14.07;11.27;;;19.90;95.80;;;;;;5010620;28;20455;-75
2023/08/09 08:15:52;;;;;;;12.53;10.67;;;19.90;95.80;;;;;;5027923;28;20446;-75
2023/08/09 08:18:18;;;;;;;12.47;10.53;;;19.90;95.80;;;;;;5010783;28;20442;-75
2023/08/09 08:20:46;;;;;;;11.50;10.40;;;19.90;95.70;;;;;;5010294;28;20440;-75
2023/08/09 08:23:13;;;;;;;10.97;9.87;;;19.90;95.70;;;;;;5026680;28;20458;-75
2023/08/09 08:25:44;;;;;;;11.67;10.47;;;19.90;95.70;;;;;;5010696;28;20526;-76
2023/08/09 08:28:10;;;;;;;11.00;9.87;;;19.90;95.70;;;;;;5010106;28;20409;-74
2023/08/09 08:30:36;;;;;;;9.90;9.00;;;19.90;95.70;;;;;;5046009;28;20466;-76
2023/08/09 08:33:05;;;;;;;10.13;9.00;;;19.90;95.70;;;;;;5029795;28;20415;-75
2023/08/09 08:35:36;;;;;;;9.63;7.73;;;19.90;95.60;;;;;;5030623;28;20501;-75
2023/08/09 08:38:03;;;;;;;8.93;8.03;;;20.00;95.70;;;;;;5047652;28;20597;-74
2023/08/09 08:40:31;;;;;;;10.33;8.17;;;20.00;95.70;;;;;;4996994;28;20445;-75
2023/08/09 08:42:59;;;;;;;8.47;7.60;;;20.00;95.60;;;;;;5029249;28;20459;-75
2023/08/09 08:45:27;;;;;;;8.10;7.40;;;20.00;95.70;;;;;;5047515;28;20415;-75
2023/08/09 08:47:57;;;;;;;9.13;7.43;;;20.00;95.70;;;;;;5029073;28;20408;-75
2023/08/09 08:50:25;;;;;;;8.17;7.13;;;20.00;95.80;;;;;;5013068;28;20446;-74
2023/08/09 08:52:52;;;;;;;7.77;6.77;;;20.00;95.80;;;;;;5029212;28;20784;-75
2023/08/09 08:55:19;;;;;;;7.30;6.60;;;20.00;95.80;;;;;;5029425;28;20446;-75
2023/08/09 08:57:46;;;;;;;7.20;6.37;;;20.00;95.70;;;;;;5012843;28;20491;-75
2023/08/09 09:00:17;;;;;;;7.60;6.60;;;20.00;95.80;;;;;;5046872;28;20442;-74
2023/08/09 09:02:45;;;;;;;7.30;6.70;;;20.00;95.70;;;;;;5029370;28;20979;-74
2023/08/09 09:05:16;;;;;;;7.20;6.50;;;20.00;95.70;;;;;;5029333;28;20431;-74
2023/08/09 09:07:45;;;;;;;7.43;5.77;;;20.10;95.80;;;;;;5013068;28;20964;-74
2023/08/09 09:10:18;;;;;;;6.80;6.20;;;20.10;95.70;;;;;;5028958;28;20590;-74
2023/08/09 09:12:49;;;;;;;6.60;6.00;;;20.10;95.70;;;;;;5012989;28;20482;-74
2023/08/09 09:15:17;;;;;;;7.63;5.67;;;20.10;95.60;;;;;;5012247;28;20419;-74
2023/08/09 09:17:44;;;;;;;5.90;5.33;;;20.10;95.60;;;;;;5045902;28;20396;-75
2023/08/09 09:20:21;;;;;;;5.77;5.30;;;20.10;95.60;;;;;;5029347;28;20451;-74
2023/08/09 09:22:48;;;;;;;5.97;5.30;;;20.10;95.70;;;;;;5012484;28;20443;-75
2023/08/09 09:25:15;;;;;;;5.60;5.10;;;20.20;95.70;;;;;;4996524;28;20442;-74
2023/08/09 09:27:42;;;;;;;5.30;4.80;;;20.20;95.70;;;;;;5012994;28;20423;-74
2023/08/09 09:30:12;;;;;;;5.67;5.17;;;20.20;95.70;;;;;;5027967;28;20483;-74
2023/08/09 09:32:56;;;;;;;5.30;4.80;;;20.20;95.70;;;;;;5028161;28;20771;-74
2023/08/09 09:35:25;;;;;;;5.57;5.07;;;20.20;96.00;;;;;;5028791;28;20519;-74
2023/08/09 09:37:53;;;;;;;5.30;4.90;;;20.20;95.70;;;;;;5046748;28;20580;-75
2023/08/09 09:40:33;;;;;;;5.00;4.50;;;20.30;95.70;;;;;;5012558;28;20459;-74
2023/08/09 09:43:04;;;;;;;5.20;4.70;;;20.30;95.70;;;;;;5029086;28;20454;-75
2023/08/09 09:45:31;;;;;;;5.10;4.63;;;20.30;95.70;;;;;;5025935;28;20435;-75
2023/08/09 09:48:00;;;;;;;5.10;4.70;;;20.30;95.70;;;;;;4992552;28;20457;-74
2023/08/09 09:50:28;;;;;;;4.77;4.37;;;20.30;95.70;;;;;;5009022;28;20928;-73
2023/08/09 09:52:55;;;;;;;4.50;4.10;;;20.30;95.70;;;;;;5026735;28;20404;-74
2023/08/09 09:55:29;;;;;;;5.20;4.73;;;20.30;95.60;;;;;;5026381;28;20456;-73
2023/08/09 09:57:57;;;;;;;4.73;4.33;;;20.30;95.70;;;;;;4992160;28;20466;-74
2023/08/09 10:00:31;;;;;;;4.60;4.20;;;20.40;95.70;;;;;;5045183;28;20444;-74
2023/08/09 10:03:00;;;;;;;5.07;4.57;;;20.40;95.70;;;;;;5028480;28;20509;-74
2023/08/09 10:05:35;;;;;;;5.43;4.93;;;20.40;95.70;;;;;;5046835;28;20575;-74
2023/08/09 10:08:06;;;;;;;4.90;4.50;;;20.40;95.70;;;;;;5028004;28;20600;-74
2023/08/09 10:10:34;;;;;;;6.07;4.20;;;20.50;95.70;;;;;;5028822;28;20443;-75
2023/08/09 10:13:07;;;;;;;5.17;4.70;;;20.40;95.60;;;;;;5032409;28;21040;-73
2023/08/09 10:15:56;;;;;;;4.10;3.80;;;20.50;95.60;;;;;;5031544;28;20455;-76
2023/08/09 10:18:33;;;;;;;4.40;4.00;;;20.50;95.60;;;;;;5032397;28;20467;-76
2023/08/09 10:21:01;;;;;;;4.00;3.60;;;20.50;95.60;;;;;;5032165;28;20444;-75
2023/08/09 10:23:30;;;;;;;4.60;4.20;;;20.50;95.60;;;;;;5031479;28;20781;-74
2023/08/09 10:25:57;;;;;;;3.83;3.50;;;20.60;95.60;;;;;;5031903;28;20436;-73
2023/08/09 10:28:40;;;;;;;3.33;3.03;;;20.60;95.60;;;;;;5034193;28;20876;-74
2023/08/09 10:31:06;;;;;;;5.20;3.90;;;20.60;95.60;;;;;;5031773;28;20866;-73
2023/08/09 10:33:35;;;;;;;4.50;3.20;;;20.60;95.50;;;;;;5015248;28;20420;-74
2023/08/09 10:36:10;;;;;;;4.27;3.97;;;20.70;95.50;;;;;;5049824;28;20405;-74
2023/08/09 10:38:40;;;;;;;4.83;3.17;;;20.70;95.40;;;;;;5050639;28;21286;-75
2023/08/09 10:41:12;;;;;;;4.07;3.67;;;20.70;95.40;;;;;;5050965;28;20933;-74
2023/08/09 10:43:41;;;;;;;3.47;3.17;;;20.80;95.40;;;;;;5032463;28;20433;-75
2023/08/09 10:46:23;;;;;;;3.70;3.23;;;20.80;95.30;;;;;;5015344;28;20538;-74
2023/08/09 10:48:53;;;;;;;6.27;3.23;;;20.80;95.20;;;;;;5015120;28;20473;-74
2023/08/09 10:51:24;;;;;;;4.27;3.50;;;20.80;95.20;;;;;;5049254;28;20800;-74
2023/08/09 10:53:52;;;;;;;4.30;3.60;;;20.90;95.20;;;;;;5049255;28;20429;-74
2023/08/09 10:56:29;;;;;;;3.73;3.43;;;20.90;95.20;;;;;;5031174;28;20911;-74
2023/08/09 10:59:24;;;;;;;3.83;3.53;;;20.90;95.10;;;;;;5011706;28;21059;-74
2023/08/09 11:01:51;;;;;;;3.77;3.47;;;20.90;95.10;;;;;;4997680;28;20466;-74
2023/08/09 11:04:20;;;;;;;4.20;3.80;;;20.90;95.00;;;;;;5030721;28;20485;-74
2023/08/09 11:06:48;;;;;;;3.70;3.40;;;20.90;95.00;;;;;;5030915;28;20425;-74
2023/08/09 11:09:17;;;;;;;3.40;3.10;;;21.00;95.00;;;;;;5049298;28;20556;-74
2023/08/09 11:11:47;;;;;;;4.00;3.30;;;21.00;95.00;;;;;;5049238;28;20606;-75
2023/08/09 11:14:17;;;;;;;8.10;3.53;;;21.00;94.90;;;;;;4999548;28;20492;-74
2023/08/09 11:16:44;;;;;;;4.67;3.10;;;21.00;94.80;;;;;;5031068;28;20413;-75
2023/08/09 11:19:22;;;;;;;3.20;3.00;;;21.00;94.70;;;;;;5049151;28;20413;-74
2023/08/09 11:21:54;;;;;;;3.73;3.43;;;21.00;94.60;;;;;;5030815;28;20461;-74
2023/08/09 11:24:26;;;;;;;3.57;3.27;;;21.10;94.60;;;;;;5030377;28;20409;-75
2023/08/09 11:26:57;;;;;;;3.57;3.27;;;21.10;94.50;;;;;;5039558;28;20464;-74
2023/08/09 11:29:27;;;;;;;3.47;3.17;;;21.10;94.50;;;;;;5044124;28;20844;-73
2023/08/09 11:31:58;;;;;;;4.07;3.77;;;21.10;94.50;;;;;;5011088;28;20540;-74
2023/08/09 11:34:25;;;;;;;3.90;3.60;;;21.10;94.50;;;;;;5017726;28;20520;-74
2023/08/09 11:36:56;;;;;;;3.53;3.33;;;21.10;94.50;;;;;;5021624;28;20425;-74
2023/08/09 11:39:24;;;;;;;3.73;3.43;;;21.10;94.50;;;;;;5038225;28;20480;-74
2023/08/09 11:41:50;;;;;;;3.77;3.50;;;21.20;94.40;;;;;;5045283;28;20510;-74
2023/08/09 11:44:35;;;;;;;3.53;3.23;;;21.20;94.40;;;;;;5052779;28;20446;-74
2023/08/09 11:47:01;;;;;;;3.87;3.57;;;21.20;94.40;;;;;;5046711;28;20422;-74
2023/08/09 11:49:28;;;;;;;4.27;3.97;;;21.20;94.40;;;;;;5050909;28;20487;-74
2023/08/09 11:51:55;;;;;;;4.00;3.70;;;21.20;94.50;;;;;;5004493;28;20455;-75
2023/08/09 11:54:24;;;;;;;4.43;4.03;;;21.30;94.50;;;;;;5023020;28;20419;-75
2023/08/09 11:56:53;;;;;;;4.07;3.70;;;21.30;94.40;;;;;;5026083;28;20871;-74
2023/08/09 11:59:22;;;;;;;3.60;3.30;;;21.30;94.40;;;;;;5044483;28;20437;-74
2023/08/09 12:01:51;;;;;;;3.70;3.37;;;21.30;94.30;;;;;;5014673;28;20445;-74
2023/08/09 12:04:23;;;;;;;3.63;3.43;;;21.30;94.30;;;;;;5017974;28;20448;-74
2023/08/09 12:06:54;;;;;;;3.67;3.47;;;21.30;94.30;;;;;;5028773;28;20532;-74
2023/08/09 12:09:30;;;;;;;3.87;3.50;;;21.40;94.30;;;;;;5017544;28;20472;-74
2023/08/09 12:12:33;;;;;;;3.90;3.60;;;21.40;94.20;;;;;;5030824;28;20457;-74
2023/08/09 12:15:02;;;;;;;5.47;3.77;;;21.40;93.90;;;;;;5024535;28;20464;-74
2023/08/09 12:17:29;;;;;;;3.43;3.17;;;21.40;93.90;;;;;;5010907;28;20506;-73
2023/08/09 12:20:01;;;;;;;3.93;3.50;;;21.40;93.80;;;;;;5053683;28;20431;-74
2023/08/09 12:22:29;;;;;;;3.43;3.20;;;21.40;93.70;;;;;;5032749;28;20806;-74
2023/08/09 12:24:57;;;;;;;3.43;3.23;;;21.50;93.80;;;;;;5029908;28;20935;-74
2023/08/09 12:27:24;;;;;;;4.83;3.70;;;21.50;93.70;;;;;;5034330;28;20452;-73
2023/08/09 12:29:51;;;;;;;3.73;3.43;;;21.50;93.70;;;;;;5052432;28;20512;-74
2023/08/09 12:32:18;;;;;;;4.50;4.20;;;21.50;93.60;;;;;;5018511;28;20799;-74
2023/08/09 12:34:49;;;;;;;4.10;3.80;;;21.50;93.70;;;;;;5030501;28;20456;-74
2023/08/09 12:37:16;;;;;;;4.07;3.87;;;21.50;93.70;;;;;;5014313;28;20954;-74
2023/08/09 12:39:44;;;;;;;3.53;3.30;;;21.60;93.80;;;;;;5027961;28;20462;-74
2023/08/09 12:42:15;;;;;;;3.60;3.40;;;21.60;93.80;;;;;;5019376;28;20434;-76
2023/08/09 12:44:41;;;;;;;4.00;3.70;;;21.60;93.70;;;;;;5013768;28;20444;-78
2023/08/09 12:47:07;;;;;;;4.23;3.93;;;21.60;93.80;;;;;;5036227;28;20432;-73
2023/08/09 12:49:33;;;;;;;3.80;3.47;;;21.60;93.80;;;;;;5029516;28;20462;-74
2023/08/09 12:52:01;;;;;;;4.13;3.83;;;21.70;93.80;;;;;;5031538;28;20487;-75
2023/08/09 12:54:27;;;;;;;3.67;3.47;;;21.70;93.70;;;;;;5033755;28;20413;-74